createdAt,value
2023-02-13T00:02:01.256Z,33.3
2023-02-13T00:07:01.188Z,34.6
2023-02-13T00:12:01.286Z,36.6
2023-02-13T00:17:01.281Z,37.2
2023-02-13T00:22:01.711Z,36.4
2023-02-13T00:27:01.179Z,35.4
2023-02-13T00:33:01.247Z,35.0
2023-02-13T00:38:01.201Z,34.4
2023-02-13T00:43:01.289Z,35.3
2023-02-13T00:48:01.153Z,36.2
2023-02-13T00:53:01.249Z,35.6
2023-02-13T00:58:01.182Z,36.5
2023-02-13T01:03:01.185Z,36.4
2023-02-13T01:08:02.420Z,36.6
2023-02-13T01:13:01.189Z,36.1
2023-02-13T01:18:02.588Z,37.8
2023-02-13T01:23:01.253Z,38.0
2023-02-13T01:28:01.234Z,38.7
2023-02-13T01:33:01.195Z,39.0
2023-02-13T01:38:01.183Z,38.5
2023-02-13T01:43:01.164Z,37.6
2023-02-13T01:48:01.232Z,38.0
2023-02-13T01:53:01.185Z,37.8
2023-02-13T01:58:01.172Z,37.9
2023-02-13T02:03:01.164Z,39.5
2023-02-13T02:08:01.307Z,40.7
2023-02-13T02:13:01.376Z,41.4
2023-02-13T02:18:01.229Z,42.5
2023-02-13T02:23:01.178Z,42.6
2023-02-13T02:28:01.430Z,41.5
2023-02-13T02:33:01.203Z,40.7
2023-02-13T02:38:01.197Z,39.3
2023-02-13T02:43:01.154Z,38.2
2023-02-13T02:48:01.234Z,37.5
2023-02-13T02:53:01.210Z,37.5
2023-02-13T02:58:07.364Z,37.5
2023-02-13T03:03:01.176Z,37.5
2023-02-13T03:08:01.290Z,36.7
2023-02-13T03:13:01.182Z,36.7
2023-02-13T03:18:01.220Z,36.6
2023-02-13T03:23:10.544Z,35.8
2023-02-13T03:28:01.336Z,35.4
2023-02-13T03:33:01.196Z,35.2
2023-02-13T03:38:01.671Z,34.4
2023-02-13T03:43:01.256Z,33.9
2023-02-13T03:48:01.155Z,34.2
2023-02-13T03:53:01.220Z,34.0
2023-02-13T03:58:01.155Z,33.7
2023-02-13T04:03:01.223Z,33.6
2023-02-13T04:08:01.252Z,33.9
2023-02-13T04:13:01.212Z,33.5
2023-02-13T04:18:01.159Z,32.4
2023-02-13T04:23:01.642Z,32.7
2023-02-13T04:28:01.247Z,32.2
2023-02-13T04:33:01.197Z,32.0
2023-02-13T04:38:01.193Z,31.3
2023-02-13T04:43:01.254Z,30.3
2023-02-13T04:48:01.165Z,30.2
2023-02-13T04:53:01.234Z,29.9
2023-02-13T04:58:01.153Z,29.5
2023-02-13T05:08:01.243Z,31.0
2023-02-13T05:13:01.189Z,29.0
2023-02-13T05:18:01.194Z,27.1
2023-02-13T05:23:01.240Z,25.1
2023-02-13T05:28:01.465Z,24.1
2023-02-13T05:33:01.228Z,23.0
2023-02-13T05:38:01.682Z,24.7
2023-02-13T05:43:01.166Z,25.8
2023-02-13T05:48:01.239Z,25.8
2023-02-13T05:53:01.701Z,25.6
2023-02-13T05:58:01.196Z,25.8
2023-02-13T06:08:01.242Z,24.7
2023-02-13T06:13:01.200Z,26.3
2023-02-13T06:23:01.189Z,26.8
2023-02-13T06:28:01.391Z,28.1
2023-02-13T06:33:01.205Z,30.1
2023-02-13T06:38:01.600Z,30.5
2023-02-13T06:43:01.172Z,32.0
2023-02-13T06:48:01.235Z,31.2
2023-02-13T06:53:01.282Z,30.3
2023-02-13T06:58:01.192Z,28.7
2023-02-13T07:03:01.345Z,28.5
2023-02-13T07:08:01.283Z,28.4
2023-02-13T07:13:06.480Z,30.0
2023-02-13T07:18:01.167Z,28.5
2023-02-13T07:23:01.206Z,30.0
2023-02-13T07:28:01.359Z,30.3
2023-02-13T07:33:01.190Z,30.7
2023-02-13T07:43:01.255Z,32.4
2023-02-13T07:48:01.233Z,32.1
2023-02-13T07:53:01.234Z,32.5
2023-02-13T07:58:01.166Z,32.4
2023-02-13T08:03:01.250Z,32.4
2023-02-13T08:08:01.424Z,32.3
2023-02-13T08:13:01.202Z,32.2
2023-02-13T08:18:01.171Z,31.6
2023-02-13T08:23:01.314Z,31.1
2023-02-13T08:28:01.324Z,30.1
2023-02-13T08:33:01.288Z,29.8
2023-02-13T08:38:01.649Z,29.0
2023-02-13T08:43:01.308Z,28.3
2023-02-13T08:48:01.685Z,28.2
2023-02-13T08:53:01.292Z,26.8
2023-02-13T08:58:01.155Z,26.4
2023-02-13T09:03:01.402Z,26.3
2023-02-13T09:08:01.338Z,27.2
2023-02-13T09:13:01.292Z,26.4
2023-02-13T09:18:01.183Z,28.4
2023-02-13T09:23:01.170Z,26.7
2023-02-13T09:28:01.420Z,25.5
2023-02-13T09:33:01.215Z,24.2
2023-02-13T09:38:01.511Z,23.3
2023-02-13T09:43:01.685Z,22.8
2023-02-13T09:48:01.369Z,24.5
2023-02-13T09:53:01.253Z,25.6
2023-02-13T09:58:01.235Z,26.4
2023-02-13T10:03:01.316Z,28.6
2023-02-13T10:08:01.200Z,28.0
2023-02-13T10:13:01.303Z,27.6
2023-02-13T10:18:01.140Z,26.1
2023-02-13T10:23:01.175Z,24.9
2023-02-13T10:28:01.285Z,23.5
2023-02-13T10:33:01.205Z,23.7
2023-02-13T10:38:01.205Z,23.6
2023-02-13T10:43:01.311Z,24.9
2023-02-13T10:48:01.270Z,24.9
2023-02-13T10:53:01.191Z,24.0
2023-02-13T10:58:01.160Z,23.0
2023-02-13T11:03:01.140Z,21.2
2023-02-13T11:08:01.269Z,20.3
2023-02-13T11:13:01.270Z,19.2
2023-02-13T11:18:01.221Z,19.7
2023-02-13T11:23:01.584Z,19.7
2023-02-13T11:28:16.949Z,20.5
2023-02-13T11:33:01.264Z,20.8
2023-02-13T11:38:01.241Z,21.2
2023-02-13T11:43:01.178Z,20.2
2023-02-13T11:48:01.258Z,20.3
2023-02-13T11:53:01.839Z,21.1
2023-02-13T11:58:01.173Z,20.2
2023-02-13T12:03:01.539Z,20.3
2023-02-13T12:08:01.232Z,20.0
2023-02-13T12:13:01.231Z,19.6
2023-02-13T12:18:01.179Z,18.9
2023-02-13T12:23:01.266Z,18.2
2023-02-13T12:28:01.448Z,17.5
2023-02-13T12:33:01.175Z,17.5
2023-02-13T12:38:01.584Z,14.1
2023-02-13T12:43:01.161Z,12.9
2023-02-13T12:48:01.259Z,13.2
2023-02-13T12:58:01.191Z,13.4
2023-02-13T13:03:01.168Z,15.3
2023-02-13T13:08:01.265Z,15.9
2023-02-13T13:13:01.213Z,16.3
2023-02-13T13:18:01.162Z,16.2
2023-02-13T13:28:01.279Z,17.1
2023-02-13T13:33:01.166Z,17.4
2023-02-13T13:38:01.633Z,17.2
2023-02-13T13:43:01.171Z,17.3
2023-02-13T13:53:01.318Z,17.7
2023-02-13T13:58:01.261Z,18.4
2023-02-13T14:03:01.206Z,19.0
2023-02-13T14:08:01.219Z,19.7
2023-02-13T14:13:01.370Z,19.6
2023-02-13T14:23:01.147Z,20.0
2023-02-13T14:28:01.160Z,19.7
2023-02-13T14:33:01.260Z,19.6
2023-02-13T14:38:01.159Z,21.3
2023-02-13T14:43:01.152Z,22.4
2023-02-13T14:48:01.149Z,22.0
2023-02-13T14:53:01.823Z,21.8
2023-02-13T14:58:01.169Z,20.4
2023-02-13T15:03:01.143Z,19.8
2023-02-13T15:08:01.186Z,19.2
2023-02-13T15:18:01.245Z,19.6
2023-02-13T15:23:01.265Z,21.6
2023-02-13T15:28:01.154Z,21.9
2023-02-13T15:33:01.160Z,23.2
2023-02-13T15:38:01.228Z,24.5
2023-02-13T15:43:01.137Z,25.2
2023-02-13T15:48:01.237Z,26.6
2023-02-13T15:53:01.223Z,26.1
2023-02-13T15:59:01.241Z,27.2
2023-02-13T16:04:01.196Z,27.6
2023-02-13T16:09:01.246Z,28.3
2023-02-13T16:14:01.168Z,29.4
2023-02-13T16:19:01.300Z,31.6
2023-02-13T16:24:01.288Z,30.2
2023-02-13T16:29:01.166Z,30.6
2023-02-13T16:34:01.179Z,30.4
2023-02-13T16:39:01.333Z,29.1
2023-02-13T16:44:01.275Z,28.5
2023-02-13T16:49:01.193Z,29.0
2023-02-13T16:54:01.671Z,28.2
2023-02-13T16:59:01.260Z,28.6
2023-02-13T17:04:01.330Z,29.1
2023-02-13T17:09:01.188Z,30.0
2023-02-13T17:14:01.169Z,30.3
2023-02-13T17:19:01.251Z,31.3
2023-02-13T17:24:01.177Z,30.5
2023-02-13T17:29:01.304Z,30.7
2023-02-13T17:34:01.172Z,30.4
2023-02-13T17:39:01.279Z,30.9
2023-02-13T17:44:01.648Z,30.9
2023-02-13T17:49:01.220Z,31.7
2023-02-13T17:54:01.865Z,32.1
2023-02-13T17:59:01.256Z,31.5
2023-02-13T18:04:01.159Z,31.6
2023-02-13T18:09:01.265Z,31.4
2023-02-13T18:14:01.164Z,32.6
2023-02-13T18:19:01.284Z,32.1
2023-02-13T18:24:01.230Z,33.5
2023-02-13T18:29:01.165Z,35.2
2023-02-13T18:34:01.184Z,36.4
2023-02-13T18:39:01.259Z,35.9
2023-02-13T18:44:01.249Z,36.4
2023-02-13T18:49:01.163Z,35.6
2023-02-13T18:54:01.669Z,34.8
2023-02-13T18:59:01.390Z,35.2
2023-02-13T19:04:01.198Z,33.9
2023-02-13T19:09:01.818Z,33.8
2023-02-13T19:14:01.745Z,34.0
2023-02-13T19:19:01.401Z,33.9
2023-02-13T19:24:01.186Z,33.3
2023-02-13T19:29:01.156Z,34.9
2023-02-13T19:34:01.158Z,35.0
2023-02-13T19:39:01.259Z,35.5
2023-02-13T19:44:01.363Z,35.0
2023-02-13T19:49:01.189Z,34.2
2023-02-13T19:54:01.169Z,33.8
2023-02-13T19:59:01.281Z,33.1
2023-02-13T20:04:01.198Z,32.4
2023-02-13T20:09:02.608Z,31.8
2023-02-13T20:14:01.252Z,30.4
2023-02-13T20:19:01.434Z,31.4
2023-02-13T20:24:01.187Z,31.8
2023-02-13T20:30:09.869Z,29.8
2023-02-13T20:35:01.297Z,30.3
2023-02-13T20:40:01.210Z,31.9
2023-02-13T20:45:02.122Z,30.8
2023-02-13T20:50:01.155Z,30.6
2023-02-13T20:55:01.268Z,32.6
2023-02-13T21:00:04.091Z,33.2
2023-02-13T21:05:01.235Z,34.0
2023-02-13T21:10:01.281Z,33.8
2023-02-13T21:15:01.957Z,34.2
2023-02-13T21:20:01.168Z,34.1
2023-02-13T21:25:01.203Z,34.1
2023-02-13T21:30:02.487Z,33.6
2023-02-13T21:35:01.282Z,34.0
2023-02-13T21:45:01.825Z,35.0
2023-02-13T21:50:01.212Z,35.2
2023-02-13T21:55:01.254Z,35.4
2023-02-13T22:00:02.023Z,35.9
2023-02-13T22:05:01.181Z,36.7
2023-02-13T22:10:01.275Z,35.9
2023-02-13T22:15:01.635Z,34.9
2023-02-13T22:25:01.233Z,33.1
2023-02-13T22:30:02.661Z,32.1
2023-02-13T22:35:01.270Z,32.5
2023-02-13T22:40:01.256Z,34.3
2023-02-13T22:45:01.651Z,35.0
2023-02-13T22:50:01.184Z,36.1
2023-02-13T22:55:01.331Z,37.4
2023-02-13T23:00:01.960Z,38.3
2023-02-13T23:05:01.248Z,38.2
2023-02-13T23:10:01.232Z,37.1
2023-02-13T23:15:04.555Z,38.2
2023-02-13T23:25:01.222Z,38.1
2023-02-13T23:30:03.547Z,37.4
2023-02-13T23:35:01.264Z,37.7
2023-02-13T23:40:01.183Z,37.3
2023-02-13T23:45:01.848Z,36.6
2023-02-13T23:50:01.184Z,36.9
2023-02-13T23:55:01.249Z,37.3
